sensor_id;sensor_type;location;lat;lon;timestamp;temperature;humidity
16283;DHT22;8249;48.708;9.030;2023-09-18T00:01:47;18.70;99.90
16283;DHT22;8249;48.708;9.030;2023-09-18T00:04:14;18.60;99.90
16283;DHT22;8249;48.708;9.030;2023-09-18T00:06:41;18.60;99.90
16283;DHT22;8249;48.708;9.030;2023-09-18T00:09:09;18.60;99.90
16283;DHT22;8249;48.708;9.030;2023-09-18T00:11:39;18.60;99.90
16283;DHT22;8249;48.708;9.030;2023-09-18T00:14:07;18.60;99.90
16283;DHT22;8249;48.708;9.030;2023-09-18T00:16:35;18.50;99.90
16283;DHT22;8249;48.708;9.030;2023-09-18T00:19:02;18.50;99.90
16283;DHT22;8249;48.708;9.030;2023-09-18T00:21:29;18.50;99.90
16283;DHT22;8249;48.708;9.030;2023-09-18T00:23:57;18.50;99.90
16283;DHT22;8249;48.708;9.030;2023-09-18T00:26:25;18.40;99.90
16283;DHT22;8249;48.708;9.030;2023-09-18T00:28:52;18.40;99.90
16283;DHT22;8249;48.708;9.030;2023-09-18T00:31:19;18.50;99.90
16283;DHT22;8249;48.708;9.030;2023-09-18T00:33:47;18.50;99.90
16283;DHT22;8249;48.708;9.030;2023-09-18T00:36:13;18.40;99.90
16283;DHT22;8249;48.708;9.030;2023-09-18T00:38:40;18.50;99.90
16283;DHT22;8249;48.708;9.030;2023-09-18T00:41:07;18.50;99.90
16283;DHT22;8249;48.708;9.030;2023-09-18T00:43:35;18.50;99.90
16283;DHT22;8249;48.708;9.030;2023-09-18T00:46:03;18.50;99.90
16283;DHT22;8249;48.708;9.030;2023-09-18T00:48:30;18.50;99.90
16283;DHT22;8249;48.708;9.030;2023-09-18T00:50:57;18.50;99.90
16283;DHT22;8249;48.708;9.030;2023-09-18T00:53:25;18.50;99.90
16283;DHT22;8249;48.708;9.030;2023-09-18T00:55:54;18.50;99.90
16283;DHT22;8249;48.708;9.030;2023-09-18T00:58:22;18.50;99.90
16283;DHT22;8249;48.708;9.030;2023-09-18T01:00:50;18.40;99.90
16283;DHT22;8249;48.708;9.030;2023-09-18T01:03:18;18.40;99.90
16283;DHT22;8249;48.708;9.030;2023-09-18T01:05:45;18.50;99.90
16283;DHT22;8249;48.708;9.030;2023-09-18T01:08:12;18.50;99.90
16283;DHT22;8249;48.708;9.030;2023-09-18T01:10:45;18.50;99.90
16283;DHT22;8249;48.708;9.030;2023-09-18T01:13:17;18.60;99.90
16283;DHT22;8249;48.708;9.030;2023-09-18T01:15:51;18.60;99.90
16283;DHT22;8249;48.708;9.030;2023-09-18T01:18:18;18.70;99.90
16283;DHT22;8249;48.708;9.030;2023-09-18T01:20:45;18.70;99.90
16283;DHT22;8249;48.708;9.030;2023-09-18T01:23:13;18.70;99.90
16283;DHT22;8249;48.708;9.030;2023-09-18T01:25:40;18.70;99.90
16283;DHT22;8249;48.708;9.030;2023-09-18T01:28:07;18.70;99.90
16283;DHT22;8249;48.708;9.030;2023-09-18T01:30:34;18.70;99.90
16283;DHT22;8249;48.708;9.030;2023-09-18T01:33:01;18.80;99.90
16283;DHT22;8249;48.708;9.030;2023-09-18T01:35:30;18.80;99.90
16283;DHT22;8249;48.708;9.030;2023-09-18T01:37:58;18.80;99.90
16283;DHT22;8249;48.708;9.030;2023-09-18T01:40:27;18.90;99.90
16283;DHT22;8249;48.708;9.030;2023-09-18T01:42:54;18.90;99.90
16283;DHT22;8249;48.708;9.030;2023-09-18T01:45:21;18.90;99.90
16283;DHT22;8249;48.708;9.030;2023-09-18T01:47:48;19.10;99.90
16283;DHT22;8249;48.708;9.030;2023-09-18T01:50:15;19.20;99.90
16283;DHT22;8249;48.708;9.030;2023-09-18T01:52:42;19.40;99.90
16283;DHT22;8249;48.708;9.030;2023-09-18T01:55:10;19.50;99.90
16283;DHT22;8249;48.708;9.030;2023-09-18T01:57:38;19.60;99.90
16283;DHT22;8249;48.708;9.030;2023-09-18T02:00:06;19.80;99.90
16283;DHT22;8249;48.708;9.030;2023-09-18T02:02:38;19.70;99.90
16283;DHT22;8249;48.708;9.030;2023-09-18T02:05:05;19.80;99.90
16283;DHT22;8249;48.708;9.030;2023-09-18T02:07:32;19.70;99.90
16283;DHT22;8249;48.708;9.030;2023-09-18T02:09:59;19.60;99.90
16283;DHT22;8249;48.708;9.030;2023-09-18T02:12:26;19.50;99.90
16283;DHT22;8249;48.708;9.030;2023-09-18T02:14:54;19.50;99.90
16283;DHT22;8249;48.708;9.030;2023-09-18T02:17:22;19.40;99.90
16283;DHT22;8249;48.708;9.030;2023-09-18T02:19:49;19.40;99.90
16283;DHT22;8249;48.708;9.030;2023-09-18T02:22:17;19.40;99.90
16283;DHT22;8249;48.708;9.030;2023-09-18T02:24:44;19.30;99.90
16283;DHT22;8249;48.708;9.030;2023-09-18T02:27:11;19.30;99.90
16283;DHT22;8249;48.708;9.030;2023-09-18T02:29:37;19.40;99.90
16283;DHT22;8249;48.708;9.030;2023-09-18T02:32:06;19.30;99.90
16283;DHT22;8249;48.708;9.030;2023-09-18T02:34:32;19.30;99.90
16283;DHT22;8249;48.708;9.030;2023-09-18T02:37:00;19.30;99.90
16283;DHT22;8249;48.708;9.030;2023-09-18T02:39:27;19.30;99.90
16283;DHT22;8249;48.708;9.030;2023-09-18T02:41:53;19.40;99.90
16283;DHT22;8249;48.708;9.030;2023-09-18T02:44:21;19.40;99.90
16283;DHT22;8249;48.708;9.030;2023-09-18T02:46:48;19.40;99.90
16283;DHT22;8249;48.708;9.030;2023-09-18T02:49:17;19.40;99.90
16283;DHT22;8249;48.708;9.030;2023-09-18T02:51:44;19.40;99.90
16283;DHT22;8249;48.708;9.030;2023-09-18T02:54:11;19.30;99.90
16283;DHT22;8249;48.708;9.030;2023-09-18T02:56:38;19.20;99.90
16283;DHT22;8249;48.708;9.030;2023-09-18T02:59:05;19.20;99.90
16283;DHT22;8249;48.708;9.030;2023-09-18T03:01:30;19.20;99.90
16283;DHT22;8249;48.708;9.030;2023-09-18T03:03:57;19.10;99.90
16283;DHT22;8249;48.708;9.030;2023-09-18T03:06:26;19.00;99.90
16283;DHT22;8249;48.708;9.030;2023-09-18T03:08:52;18.90;99.90
16283;DHT22;8249;48.708;9.030;2023-09-18T03:11:19;18.90;99.90
16283;DHT22;8249;48.708;9.030;2023-09-18T03:13:47;18.70;99.90
16283;DHT22;8249;48.708;9.030;2023-09-18T03:16:15;18.60;99.90
16283;DHT22;8249;48.708;9.030;2023-09-18T03:18:43;18.60;99.90
16283;DHT22;8249;48.708;9.030;2023-09-18T03:21:10;18.50;99.90
16283;DHT22;8249;48.708;9.030;2023-09-18T03:23:38;18.50;99.90
16283;DHT22;8249;48.708;9.030;2023-09-18T03:26:05;18.40;99.90
16283;DHT22;8249;48.708;9.030;2023-09-18T03:28:32;18.40;99.90
16283;DHT22;8249;48.708;9.030;2023-09-18T03:30:59;18.40;99.90
16283;DHT22;8249;48.708;9.030;2023-09-18T03:33:27;18.40;99.90
16283;DHT22;8249;48.708;9.030;2023-09-18T03:35:53;18.40;99.90
16283;DHT22;8249;48.708;9.030;2023-09-18T03:38:26;18.30;99.90
16283;DHT22;8249;48.708;9.030;2023-09-18T03:40:55;18.30;99.90
16283;DHT22;8249;48.708;9.030;2023-09-18T03:43:22;18.40;99.90
16283;DHT22;8249;48.708;9.030;2023-09-18T03:45:49;18.50;99.90
16283;DHT22;8249;48.708;9.030;2023-09-18T03:48:17;18.60;99.90
16283;DHT22;8249;48.708;9.030;2023-09-18T03:50:44;18.70;99.90
16283;DHT22;8249;48.708;9.030;2023-09-18T03:53:11;18.80;99.90
16283;DHT22;8249;48.708;9.030;2023-09-18T03:55:38;19.00;99.90
16283;DHT22;8249;48.708;9.030;2023-09-18T03:58:06;19.00;99.90
16283;DHT22;8249;48.708;9.030;2023-09-18T04:00:33;19.00;99.90
16283;DHT22;8249;48.708;9.030;2023-09-18T04:03:00;19.10;99.90
16283;DHT22;8249;48.708;9.030;2023-09-18T04:05:27;19.10;99.90
16283;DHT22;8249;48.708;9.030;2023-09-18T04:07:55;19.10;99.90
16283;DHT22;8249;48.708;9.030;2023-09-18T04:10:22;19.10;99.90
16283;DHT22;8249;48.708;9.030;2023-09-18T04:12:49;19.10;99.90
16283;DHT22;8249;48.708;9.030;2023-09-18T04:15:18;19.00;99.90
16283;DHT22;8249;48.708;9.030;2023-09-18T04:17:46;19.00;99.90
16283;DHT22;8249;48.708;9.030;2023-09-18T04:20:14;19.00;99.90
16283;DHT22;8249;48.708;9.030;2023-09-18T04:22:44;19.10;99.90
16283;DHT22;8249;48.708;9.030;2023-09-18T04:25:11;19.10;99.90
16283;DHT22;8249;48.708;9.030;2023-09-18T04:27:38;19.20;99.90
16283;DHT22;8249;48.708;9.030;2023-09-18T04:30:09;19.10;99.90
16283;DHT22;8249;48.708;9.030;2023-09-18T04:32:38;19.10;99.90
16283;DHT22;8249;48.708;9.030;2023-09-18T04:35:06;19.10;99.90
16283;DHT22;8249;48.708;9.030;2023-09-18T04:37:38;19.00;99.90
16283;DHT22;8249;48.708;9.030;2023-09-18T04:40:08;19.00;99.90
16283;DHT22;8249;48.708;9.030;2023-09-18T04:42:37;19.00;99.90
16283;DHT22;8249;48.708;9.030;2023-09-18T04:45:05;18.90;99.90
16283;DHT22;8249;48.708;9.030;2023-09-18T04:47:32;18.90;99.90
16283;DHT22;8249;48.708;9.030;2023-09-18T04:50:00;18.90;99.90
16283;DHT22;8249;48.708;9.030;2023-09-18T04:52:31;18.80;99.90
16283;DHT22;8249;48.708;9.030;2023-09-18T04:54:58;18.70;99.90
16283;DHT22;8249;48.708;9.030;2023-09-18T04:57:25;18.80;99.90
16283;DHT22;8249;48.708;9.030;2023-09-18T04:59:51;18.80;99.90
16283;DHT22;8249;48.708;9.030;2023-09-18T05:02:18;18.80;99.90
16283;DHT22;8249;48.708;9.030;2023-09-18T05:04:45;18.80;99.90
16283;DHT22;8249;48.708;9.030;2023-09-18T05:07:13;18.70;99.90
16283;DHT22;8249;48.708;9.030;2023-09-18T05:09:40;18.60;99.90
16283;DHT22;8249;48.708;9.030;2023-09-18T05:12:09;18.70;99.90
16283;DHT22;8249;48.708;9.030;2023-09-18T05:14:39;18.70;99.90
16283;DHT22;8249;48.708;9.030;2023-09-18T05:17:06;18.70;99.90
16283;DHT22;8249;48.708;9.030;2023-09-18T05:19:33;18.70;99.90
16283;DHT22;8249;48.708;9.030;2023-09-18T05:22:00;18.70;99.90
16283;DHT22;8249;48.708;9.030;2023-09-18T05:24:28;18.90;99.90
16283;DHT22;8249;48.708;9.030;2023-09-18T05:26:55;19.00;99.90
16283;DHT22;8249;48.708;9.030;2023-09-18T05:29:21;19.10;99.90
16283;DHT22;8249;48.708;9.030;2023-09-18T05:31:48;19.20;99.90
16283;DHT22;8249;48.708;9.030;2023-09-18T05:34:15;19.20;99.90
16283;DHT22;8249;48.708;9.030;2023-09-18T05:36:42;19.20;99.90
16283;DHT22;8249;48.708;9.030;2023-09-18T05:39:09;19.40;99.90
16283;DHT22;8249;48.708;9.030;2023-09-18T05:41:40;19.40;99.90
16283;DHT22;8249;48.708;9.030;2023-09-18T05:44:07;19.40;99.90
16283;DHT22;8249;48.708;9.030;2023-09-18T05:46:34;19.40;99.90
16283;DHT22;8249;48.708;9.030;2023-09-18T05:49:01;19.50;99.90
16283;DHT22;8249;48.708;9.030;2023-09-18T05:51:29;19.40;99.90
16283;DHT22;8249;48.708;9.030;2023-09-18T05:53:56;19.40;99.90
16283;DHT22;8249;48.708;9.030;2023-09-18T05:56:23;19.40;99.90
16283;DHT22;8249;48.708;9.030;2023-09-18T05:58:51;19.40;99.90
16283;DHT22;8249;48.708;9.030;2023-09-18T06:01:20;19.40;99.90
16283;DHT22;8249;48.708;9.030;2023-09-18T06:03:47;19.40;99.90
16283;DHT22;8249;48.708;9.030;2023-09-18T06:06:14;19.40;99.90
16283;DHT22;8249;48.708;9.030;2023-09-18T06:08:41;19.30;99.90
16283;DHT22;8249;48.708;9.030;2023-09-18T06:11:08;19.20;99.90
16283;DHT22;8249;48.708;9.030;2023-09-18T06:13:34;19.20;99.90
16283;DHT22;8249;48.708;9.030;2023-09-18T06:16:05;19.20;99.90
16283;DHT22;8249;48.708;9.030;2023-09-18T06:18:33;19.20;99.90
16283;DHT22;8249;48.708;9.030;2023-09-18T06:21:01;19.20;99.90
16283;DHT22;8249;48.708;9.030;2023-09-18T06:23:28;19.20;99.90
16283;DHT22;8249;48.708;9.030;2023-09-18T06:25:55;19.20;99.90
16283;DHT22;8249;48.708;9.030;2023-09-18T06:28:22;19.20;99.90
16283;DHT22;8249;48.708;9.030;2023-09-18T06:30:49;19.20;99.90
16283;DHT22;8249;48.708;9.030;2023-09-18T06:33:17;19.20;99.90
16283;DHT22;8249;48.708;9.030;2023-09-18T06:35:44;19.20;99.90
16283;DHT22;8249;48.708;9.030;2023-09-18T06:38:11;19.30;99.90
16283;DHT22;8249;48.708;9.030;2023-09-18T06:40:38;19.30;99.90
16283;DHT22;8249;48.708;9.030;2023-09-18T06:43:05;19.30;99.90
16283;DHT22;8249;48.708;9.030;2023-09-18T06:45:32;19.30;99.90
16283;DHT22;8249;48.708;9.030;2023-09-18T06:47:59;19.20;99.90
16283;DHT22;8249;48.708;9.030;2023-09-18T06:50:28;19.20;99.90
16283;DHT22;8249;48.708;9.030;2023-09-18T06:52:55;19.20;99.90
16283;DHT22;8249;48.708;9.030;2023-09-18T06:55:22;19.20;99.90
16283;DHT22;8249;48.708;9.030;2023-09-18T06:57:49;19.20;99.90
16283;DHT22;8249;48.708;9.030;2023-09-18T07:00:17;19.30;99.90
16283;DHT22;8249;48.708;9.030;2023-09-18T07:02:46;19.40;99.90
16283;DHT22;8249;48.708;9.030;2023-09-18T07:05:13;19.40;99.90
16283;DHT22;8249;48.708;9.030;2023-09-18T07:07:41;19.50;99.90
16283;DHT22;8249;48.708;9.030;2023-09-18T07:10:08;19.60;99.90
16283;DHT22;8249;48.708;9.030;2023-09-18T07:12:35;19.60;99.90
16283;DHT22;8249;48.708;9.030;2023-09-18T07:15:02;19.70;99.90
16283;DHT22;8249;48.708;9.030;2023-09-18T07:17:30;19.70;99.90
16283;DHT22;8249;48.708;9.030;2023-09-18T07:19:57;19.80;99.90
16283;DHT22;8249;48.708;9.030;2023-09-18T07:22:24;19.80;99.90
16283;DHT22;8249;48.708;9.030;2023-09-18T07:24:52;19.90;99.90
16283;DHT22;8249;48.708;9.030;2023-09-18T07:27:19;19.90;99.90
16283;DHT22;8249;48.708;9.030;2023-09-18T07:29:46;19.80;99.90
16283;DHT22;8249;48.708;9.030;2023-09-18T07:32:14;19.90;99.90
16283;DHT22;8249;48.708;9.030;2023-09-18T07:34:42;19.90;99.90
16283;DHT22;8249;48.708;9.030;2023-09-18T07:37:09;20.00;99.90
16283;DHT22;8249;48.708;9.030;2023-09-18T07:39:35;20.00;99.90
16283;DHT22;8249;48.708;9.030;2023-09-18T07:42:07;19.90;99.90
16283;DHT22;8249;48.708;9.030;2023-09-18T07:44:34;19.90;99.90
16283;DHT22;8249;48.708;9.030;2023-09-18T07:47:00;19.90;99.90
16283;DHT22;8249;48.708;9.030;2023-09-18T07:49:28;19.90;99.90
16283;DHT22;8249;48.708;9.030;2023-09-18T07:51:55;20.00;99.90
16283;DHT22;8249;48.708;9.030;2023-09-18T07:54:22;20.00;99.90
16283;DHT22;8249;48.708;9.030;2023-09-18T07:56:49;20.10;99.90
16283;DHT22;8249;48.708;9.030;2023-09-18T07:59:18;20.00;99.90
16283;DHT22;8249;48.708;9.030;2023-09-18T08:01:45;20.10;99.90
16283;DHT22;8249;48.708;9.030;2023-09-18T08:04:12;20.00;99.90
16283;DHT22;8249;48.708;9.030;2023-09-18T08:06:39;20.00;99.90
16283;DHT22;8249;48.708;9.030;2023-09-18T08:09:07;19.90;99.90
16283;DHT22;8249;48.708;9.030;2023-09-18T08:11:35;19.90;99.90
16283;DHT22;8249;48.708;9.030;2023-09-18T08:14:07;19.90;99.90
16283;DHT22;8249;48.708;9.030;2023-09-18T08:16:38;20.00;99.90
16283;DHT22;8249;48.708;9.030;2023-09-18T08:19:05;19.90;99.90
16283;DHT22;8249;48.708;9.030;2023-09-18T08:21:32;19.80;99.90
16283;DHT22;8249;48.708;9.030;2023-09-18T08:23:59;19.70;99.90
16283;DHT22;8249;48.708;9.030;2023-09-18T08:26:27;19.70;99.90
16283;DHT22;8249;48.708;9.030;2023-09-18T08:28:54;19.60;99.90
16283;DHT22;8249;48.708;9.030;2023-09-18T08:31:21;19.70;99.90
16283;DHT22;8249;48.708;9.030;2023-09-18T08:33:51;19.50;99.90
16283;DHT22;8249;48.708;9.030;2023-09-18T08:36:18;19.40;99.90
16283;DHT22;8249;48.708;9.030;2023-09-18T08:38:45;19.40;99.90
16283;DHT22;8249;48.708;9.030;2023-09-18T08:41:13;19.20;99.90
16283;DHT22;8249;48.708;9.030;2023-09-18T08:43:43;19.10;99.90
16283;DHT22;8249;48.708;9.030;2023-09-18T08:46:10;18.90;99.90
16283;DHT22;8249;48.708;9.030;2023-09-18T08:48:39;18.80;99.90
16283;DHT22;8249;48.708;9.030;2023-09-18T08:51:09;18.70;99.90
16283;DHT22;8249;48.708;9.030;2023-09-18T08:53:37;18.70;99.90
16283;DHT22;8249;48.708;9.030;2023-09-18T08:56:04;18.60;99.90
16283;DHT22;8249;48.708;9.030;2023-09-18T08:58:34;18.60;99.90
16283;DHT22;8249;48.708;9.030;2023-09-18T09:01:03;18.60;99.90
16283;DHT22;8249;48.708;9.030;2023-09-18T09:03:35;18.50;99.90
16283;DHT22;8249;48.708;9.030;2023-09-18T09:06:02;18.30;99.90
16283;DHT22;8249;48.708;9.030;2023-09-18T09:08:31;18.30;99.90
16283;DHT22;8249;48.708;9.030;2023-09-18T09:10:58;18.20;99.90
16283;DHT22;8249;48.708;9.030;2023-09-18T09:13:25;18.20;99.90
16283;DHT22;8249;48.708;9.030;2023-09-18T09:15:53;18.20;99.90
16283;DHT22;8249;48.708;9.030;2023-09-18T09:18:21;18.10;99.90
16283;DHT22;8249;48.708;9.030;2023-09-18T09:20:55;18.20;99.90
16283;DHT22;8249;48.708;9.030;2023-09-18T09:23:25;18.30;99.90
16283;DHT22;8249;48.708;9.030;2023-09-18T09:26:12;18.20;99.90
16283;DHT22;8249;48.708;9.030;2023-09-18T09:28:40;18.20;99.90
16283;DHT22;8249;48.708;9.030;2023-09-18T09:31:09;18.20;99.90
16283;DHT22;8249;48.708;9.030;2023-09-18T09:33:37;18.20;99.90
16283;DHT22;8249;48.708;9.030;2023-09-18T09:36:06;18.20;99.90
16283;DHT22;8249;48.708;9.030;2023-09-18T09:38:34;18.20;99.90
16283;DHT22;8249;48.708;9.030;2023-09-18T09:41:04;18.30;99.90
16283;DHT22;8249;48.708;9.030;2023-09-18T09:43:32;18.30;99.90
16283;DHT22;8249;48.708;9.030;2023-09-18T09:46:00;18.30;99.90
16283;DHT22;8249;48.708;9.030;2023-09-18T09:48:28;18.30;99.90
16283;DHT22;8249;48.708;9.030;2023-09-18T09:50:58;18.40;99.90
16283;DHT22;8249;48.708;9.030;2023-09-18T09:53:45;18.50;99.90
16283;DHT22;8249;48.708;9.030;2023-09-18T09:56:15;18.60;99.90
16283;DHT22;8249;48.708;9.030;2023-09-18T09:59:00;18.70;99.90
16283;DHT22;8249;48.708;9.030;2023-09-18T10:01:30;18.90;99.90
16283;DHT22;8249;48.708;9.030;2023-09-18T10:03:59;19.00;99.90
16283;DHT22;8249;48.708;9.030;2023-09-18T10:06:27;19.00;99.90
16283;DHT22;8249;48.708;9.030;2023-09-18T10:08:57;19.00;99.90
16283;DHT22;8249;48.708;9.030;2023-09-18T10:11:28;18.90;99.90
16283;DHT22;8249;48.708;9.030;2023-09-18T10:14:00;18.90;99.90
16283;DHT22;8249;48.708;9.030;2023-09-18T10:16:31;18.80;99.90
16283;DHT22;8249;48.708;9.030;2023-09-18T10:19:08;18.80;99.90
16283;DHT22;8249;48.708;9.030;2023-09-18T10:22:02;18.80;99.90
16283;DHT22;8249;48.708;9.030;2023-09-18T10:24:33;18.70;99.90
16283;DHT22;8249;48.708;9.030;2023-09-18T10:27:05;18.70;99.90
16283;DHT22;8249;48.708;9.030;2023-09-18T10:29:35;18.70;99.90
16283;DHT22;8249;48.708;9.030;2023-09-18T10:32:03;18.70;99.90
16283;DHT22;8249;48.708;9.030;2023-09-18T10:34:34;18.70;99.90
16283;DHT22;8249;48.708;9.030;2023-09-18T10:37:03;18.70;99.90
16283;DHT22;8249;48.708;9.030;2023-09-18T10:39:34;18.60;99.90
16283;DHT22;8249;48.708;9.030;2023-09-18T10:42:08;18.60;99.90
16283;DHT22;8249;48.708;9.030;2023-09-18T10:44:35;18.60;99.90
16283;DHT22;8249;48.708;9.030;2023-09-18T10:47:07;18.50;99.90
16283;DHT22;8249;48.708;9.030;2023-09-18T10:49:35;18.70;99.90
16283;DHT22;8249;48.708;9.030;2023-09-18T10:52:02;18.60;99.90
16283;DHT22;8249;48.708;9.030;2023-09-18T10:54:31;18.60;99.90
16283;DHT22;8249;48.708;9.030;2023-09-18T10:56:58;18.70;99.90
16283;DHT22;8249;48.708;9.030;2023-09-18T10:59:29;18.70;99.90
16283;DHT22;8249;48.708;9.030;2023-09-18T11:01:56;18.70;99.90
16283;DHT22;8249;48.708;9.030;2023-09-18T11:04:23;18.70;99.90
16283;DHT22;8249;48.708;9.030;2023-09-18T11:07:03;18.70;99.90
16283;DHT22;8249;48.708;9.030;2023-09-18T11:09:42;18.80;99.90
16283;DHT22;8249;48.708;9.030;2023-09-18T11:12:10;18.80;99.90
16283;DHT22;8249;48.708;9.030;2023-09-18T11:14:47;18.90;99.90
16283;DHT22;8249;48.708;9.030;2023-09-18T11:17:28;18.90;99.90
16283;DHT22;8249;48.708;9.030;2023-09-18T11:20:02;19.00;99.90
16283;DHT22;8249;48.708;9.030;2023-09-18T11:22:31;18.90;99.90
16283;DHT22;8249;48.708;9.030;2023-09-18T11:28:14;18.90;99.90
16283;DHT22;8249;48.708;9.030;2023-09-18T11:30:50;18.90;99.90
16283;DHT22;8249;48.708;9.030;2023-09-18T11:33:31;18.90;99.90
16283;DHT22;8249;48.708;9.030;2023-09-18T11:36:04;18.90;99.90
16283;DHT22;8249;48.708;9.030;2023-09-18T11:38:33;18.90;99.90
16283;DHT22;8249;48.708;9.030;2023-09-18T11:41:20;18.90;99.90
16283;DHT22;8249;48.708;9.030;2023-09-18T11:43:46;19.00;99.90
16283;DHT22;8249;48.708;9.030;2023-09-18T11:46:18;19.10;99.90
16283;DHT22;8249;48.708;9.030;2023-09-18T11:48:47;19.10;99.90
16283;DHT22;8249;48.708;9.030;2023-09-18T11:51:21;19.10;99.90
16283;DHT22;8249;48.708;9.030;2023-09-18T11:53:51;19.20;99.90
16283;DHT22;8249;48.708;9.030;2023-09-18T11:56:19;19.20;99.90
16283;DHT22;8249;48.708;9.030;2023-09-18T11:58:47;19.20;99.90
16283;DHT22;8249;48.708;9.030;2023-09-18T12:01:18;19.20;99.90
16283;DHT22;8249;48.708;9.030;2023-09-18T12:03:45;19.30;99.90
16283;DHT22;8249;48.708;9.030;2023-09-18T12:06:14;19.30;99.90
16283;DHT22;8249;48.708;9.030;2023-09-18T12:08:42;19.30;99.90
16283;DHT22;8249;48.708;9.030;2023-09-18T12:11:09;19.40;99.90
16283;DHT22;8249;48.708;9.030;2023-09-18T12:13:42;19.40;99.90
16283;DHT22;8249;48.708;9.030;2023-09-18T12:16:09;19.40;99.90
16283;DHT22;8249;48.708;9.030;2023-09-18T12:18:45;19.30;99.90
16283;DHT22;8249;48.708;9.030;2023-09-18T12:21:13;19.40;99.90
16283;DHT22;8249;48.708;9.030;2023-09-18T12:23:42;19.50;99.90
16283;DHT22;8249;48.708;9.030;2023-09-18T12:26:11;19.60;99.90
16283;DHT22;8249;48.708;9.030;2023-09-18T12:28:39;19.70;99.90
16283;DHT22;8249;48.708;9.030;2023-09-18T12:31:10;19.90;99.90
16283;DHT22;8249;48.708;9.030;2023-09-18T12:33:39;20.00;99.90
16283;DHT22;8249;48.708;9.030;2023-09-18T12:36:07;20.10;99.90
16283;DHT22;8249;48.708;9.030;2023-09-18T12:38:35;20.30;99.90
16283;DHT22;8249;48.708;9.030;2023-09-18T12:41:03;20.60;99.90
16283;DHT22;8249;48.708;9.030;2023-09-18T12:43:37;21.40;99.90
16283;DHT22;8249;48.708;9.030;2023-09-18T12:46:05;21.80;99.90
16283;DHT22;8249;48.708;9.030;2023-09-18T12:48:37;21.80;99.90
16283;DHT22;8249;48.708;9.030;2023-09-18T12:51:05;21.60;99.90
16283;DHT22;8249;48.708;9.030;2023-09-18T12:53:33;21.50;99.90
16283;DHT22;8249;48.708;9.030;2023-09-18T12:56:07;21.40;99.90
16283;DHT22;8249;48.708;9.030;2023-09-18T12:58:35;21.40;99.90
16283;DHT22;8249;48.708;9.030;2023-09-18T13:01:06;21.30;99.90
16283;DHT22;8249;48.708;9.030;2023-09-18T13:03:40;21.30;99.90
16283;DHT22;8249;48.708;9.030;2023-09-18T13:06:10;21.50;99.90
16283;DHT22;8249;48.708;9.030;2023-09-18T13:08:38;21.40;99.90
16283;DHT22;8249;48.708;9.030;2023-09-18T13:11:05;21.50;99.90
16283;DHT22;8249;48.708;9.030;2023-09-18T13:13:32;21.70;99.90
16283;DHT22;8249;48.708;9.030;2023-09-18T13:16:05;21.70;99.90
16283;DHT22;8249;48.708;9.030;2023-09-18T13:18:34;21.80;99.90
16283;DHT22;8249;48.708;9.030;2023-09-18T13:21:10;21.70;99.90
16283;DHT22;8249;48.708;9.030;2023-09-18T13:23:38;21.90;99.90
16283;DHT22;8249;48.708;9.030;2023-09-18T13:26:06;21.90;99.90
16283;DHT22;8249;48.708;9.030;2023-09-18T13:28:34;22.20;99.90
16283;DHT22;8249;48.708;9.030;2023-09-18T13:31:01;22.70;99.90
16283;DHT22;8249;48.708;9.030;2023-09-18T13:33:31;23.40;99.90
16283;DHT22;8249;48.708;9.030;2023-09-18T13:35:59;23.90;99.90
16283;DHT22;8249;48.708;9.030;2023-09-18T13:38:27;24.00;99.90
16283;DHT22;8249;48.708;9.030;2023-09-18T13:40:54;23.70;99.90
16283;DHT22;8249;48.708;9.030;2023-09-18T13:43:21;23.60;99.90
16283;DHT22;8249;48.708;9.030;2023-09-18T13:45:49;23.70;99.90
16283;DHT22;8249;48.708;9.030;2023-09-18T13:48:18;23.60;99.90
16283;DHT22;8249;48.708;9.030;2023-09-18T13:50:46;23.80;99.90
16283;DHT22;8249;48.708;9.030;2023-09-18T13:53:13;23.60;99.90
16283;DHT22;8249;48.708;9.030;2023-09-18T13:55:42;23.40;99.90
16283;DHT22;8249;48.708;9.030;2023-09-18T13:58:09;23.00;99.90
16283;DHT22;8249;48.708;9.030;2023-09-18T14:00:36;22.50;99.90
16283;DHT22;8249;48.708;9.030;2023-09-18T14:03:04;22.20;99.90
16283;DHT22;8249;48.708;9.030;2023-09-18T14:05:31;22.20;99.90
16283;DHT22;8249;48.708;9.030;2023-09-18T14:08:00;22.20;99.90
16283;DHT22;8249;48.708;9.030;2023-09-18T14:10:27;22.40;99.90
16283;DHT22;8249;48.708;9.030;2023-09-18T14:12:56;22.50;99.90
16283;DHT22;8249;48.708;9.030;2023-09-18T14:15:23;22.70;99.90
16283;DHT22;8249;48.708;9.030;2023-09-18T14:17:50;22.40;99.90
16283;DHT22;8249;48.708;9.030;2023-09-18T14:20:17;22.30;99.90
16283;DHT22;8249;48.708;9.030;2023-09-18T14:22:45;22.00;99.90
16283;DHT22;8249;48.708;9.030;2023-09-18T14:25:15;21.90;99.90
16283;DHT22;8249;48.708;9.030;2023-09-18T14:27:42;22.10;99.90
16283;DHT22;8249;48.708;9.030;2023-09-18T14:30:12;21.90;99.90
16283;DHT22;8249;48.708;9.030;2023-09-18T14:32:39;21.90;99.90
16283;DHT22;8249;48.708;9.030;2023-09-18T14:35:07;22.00;99.90
16283;DHT22;8249;48.708;9.030;2023-09-18T14:37:35;22.10;99.90
16283;DHT22;8249;48.708;9.030;2023-09-18T14:40:03;22.30;99.90
16283;DHT22;8249;48.708;9.030;2023-09-18T14:42:30;22.50;99.90
16283;DHT22;8249;48.708;9.030;2023-09-18T14:44:57;22.80;99.90
16283;DHT22;8249;48.708;9.030;2023-09-18T14:47:28;23.10;99.90
16283;DHT22;8249;48.708;9.030;2023-09-18T14:49:55;23.40;99.90
16283;DHT22;8249;48.708;9.030;2023-09-18T14:52:24;23.70;99.90
16283;DHT22;8249;48.708;9.030;2023-09-18T14:54:51;23.40;99.90
16283;DHT22;8249;48.708;9.030;2023-09-18T14:57:18;23.40;99.90
16283;DHT22;8249;48.708;9.030;2023-09-18T14:59:45;23.20;99.90
16283;DHT22;8249;48.708;9.030;2023-09-18T15:02:13;22.90;99.90
16283;DHT22;8249;48.708;9.030;2023-09-18T15:04:45;22.80;99.90
16283;DHT22;8249;48.708;9.030;2023-09-18T15:07:13;22.50;99.90
16283;DHT22;8249;48.708;9.030;2023-09-18T15:09:40;22.40;99.90
16283;DHT22;8249;48.708;9.030;2023-09-18T15:12:08;22.10;99.90
16283;DHT22;8249;48.708;9.030;2023-09-18T15:14:37;21.90;99.90
16283;DHT22;8249;48.708;9.030;2023-09-18T15:17:04;21.90;99.90
16283;DHT22;8249;48.708;9.030;2023-09-18T15:19:32;22.20;99.90
16283;DHT22;8249;48.708;9.030;2023-09-18T15:22:01;22.20;99.90
16283;DHT22;8249;48.708;9.030;2023-09-18T15:24:28;22.40;99.90
16283;DHT22;8249;48.708;9.030;2023-09-18T15:26:55;22.80;99.90
16283;DHT22;8249;48.708;9.030;2023-09-18T15:29:22;23.00;99.90
16283;DHT22;8249;48.708;9.030;2023-09-18T15:31:49;23.10;99.90
16283;DHT22;8249;48.708;9.030;2023-09-18T15:34:16;23.20;99.90
16283;DHT22;8249;48.708;9.030;2023-09-18T15:36:43;23.10;99.90
16283;DHT22;8249;48.708;9.030;2023-09-18T15:39:11;23.10;99.90
16283;DHT22;8249;48.708;9.030;2023-09-18T15:41:38;23.10;99.90
16283;DHT22;8249;48.708;9.030;2023-09-18T15:44:05;23.40;99.90
16283;DHT22;8249;48.708;9.030;2023-09-18T15:46:36;23.90;99.90
16283;DHT22;8249;48.708;9.030;2023-09-18T15:49:02;24.10;99.90
16283;DHT22;8249;48.708;9.030;2023-09-18T15:51:29;23.90;99.90
16283;DHT22;8249;48.708;9.030;2023-09-18T15:53:56;24.00;99.90
16283;DHT22;8249;48.708;9.030;2023-09-18T15:56:25;23.80;99.90